Time;durP1;ratioP1;P1;durP2;ratioP2;P2;SDS_P1;SDS_P2;PMS_P1;PMS_P2;Temp;Humidity;BMP_temperature;BMP_pressure;BME280_temperature;BME280_humidity;BME280_pressure;Samples;Min_cycle;Max_cycle;Signal;HPM_P1;HPM_P2
2022/12/15 00:38:46;;;;;;;44.97;30.73;;;-1.50;99.90;;;;;;5039383;28;20224;-75
2022/12/15 00:41:35;;;;;;;44.67;29.15;;;-1.30;99.90;;;;;;5046028;28;20205;-74
2022/12/15 00:44:22;;;;;;;44.95;30.08;;;-1.30;99.90;;;;;;5039994;28;21098;-73
2022/12/15 00:47:06;;;;;;;53.53;29.48;;;-1.20;99.90;;;;;;5063366;28;20344;-74
2022/12/15 01:20:31;;;;;;;44.03;27.00;;;-1.40;99.90;;;;;;5046883;28;20240;-74
2022/12/15 01:23:18;;;;;;;42.85;28.17;;;-1.30;99.90;;;;;;5040906;28;20259;-76
2022/12/15 01:26:04;;;;;;;39.88;27.40;;;-1.40;99.90;;;;;;5050216;28;20204;-73
2022/12/15 01:28:49;;;;;;;45.35;29.10;;;-1.40;99.90;;;;;;5042820;28;20252;-74
2022/12/15 01:31:35;;;;;;;42.80;26.95;;;-1.60;99.90;;;;;;5060816;28;20203;-74
2022/12/15 01:34:21;;;;;;;40.85;27.85;;;-1.60;99.90;;;;;;5044064;28;20236;-73
2022/12/15 01:37:07;;;;;;;40.40;27.02;;;-1.60;99.90;;;;;;5049093;28;20283;-75
2022/12/15 01:42:57;;;;;;;37.30;25.27;;;-1.60;99.90;;;;;;5048219;28;20336;-73
2022/12/15 01:45:49;;;;;;;39.63;28.83;;;-1.50;99.90;;;;;;5049349;28;20763;-74
2022/12/15 01:48:40;;;;;;;38.22;26.70;;;-1.40;99.90;;;;;;5048084;28;20276;-74
2022/12/15 01:51:31;;;;;;;38.35;27.25;;;-1.30;99.90;;;;;;5042977;28;20213;-74
2022/12/15 01:54:21;;;;;;;40.33;27.60;;;-1.20;99.90;;;;;;5041452;28;20232;-74
2022/12/15 01:57:15;;;;;;;42.65;27.30;;;-1.10;99.90;;;;;;5045888;28;20204;-74
2022/12/15 02:00:02;;;;;;;36.28;26.00;;;-1.20;99.90;;;;;;5042009;28;20320;-74
2022/12/15 02:02:47;;;;;;;40.25;27.58;;;-1.30;99.90;;;;;;5046793;28;20228;-74
2022/12/15 02:05:35;;;;;;;38.15;27.13;;;-1.30;99.90;;;;;;5056320;28;20204;-74
2022/12/15 02:08:20;;;;;;;43.25;26.05;;;-1.30;99.90;;;;;;5041429;28;20687;-74
2022/12/15 02:11:36;;;;;;;38.05;25.55;;;-1.30;99.90;;;;;;5036872;28;20224;-74
2022/12/15 02:14:39;;;;;;;40.38;25.67;;;-1.20;99.90;;;;;;5043925;28;20229;-74
2022/12/15 02:17:33;;;;;;;38.72;26.40;;;-1.20;99.90;;;;;;5039199;28;20205;-74
2022/12/15 02:20:41;;;;;;;43.25;27.00;;;-1.10;99.90;;;;;;5053880;28;20282;-74
2022/12/15 02:24:21;;;;;;;38.13;27.50;;;-1.10;99.90;;;;;;5049617;28;20220;-74
2022/12/15 02:27:25;;;;;;;39.65;25.77;;;-1.10;99.90;;;;;;5046023;28;20582;-74
2022/12/15 02:30:35;;;;;;;35.00;23.30;;;-1.50;99.90;;;;;;5042866;28;20208;-74
2022/12/15 02:33:24;;;;;;;37.13;27.55;;;-1.30;99.90;;;;;;5036442;28;20315;-74
2022/12/15 02:36:18;;;;;;;40.10;27.80;;;-1.20;99.90;;;;;;5057257;28;20570;-74
2022/12/15 02:39:05;;;;;;;39.30;28.40;;;-1.20;99.90;;;;;;5046691;28;20263;-74
2022/12/15 02:41:51;;;;;;;36.90;24.25;;;-1.20;99.90;;;;;;5035721;28;20205;-74
2022/12/15 02:44:41;;;;;;;40.22;27.27;;;-1.30;99.90;;;;;;5040238;28;20914;-74
2022/12/15 02:47:37;;;;;;;43.60;26.88;;;-1.30;99.90;;;;;;5036193;28;20311;-74
2022/12/15 02:50:41;;;;;;;36.05;25.27;;;-1.40;99.90;;;;;;5052443;28;20204;-74
2022/12/15 02:53:52;;;;;;;45.15;28.33;;;-1.40;99.90;;;;;;5043042;28;20556;-75
2022/12/15 02:56:45;;;;;;;41.25;25.10;;;-1.30;99.90;;;;;;5041331;28;20197;-74
2022/12/15 02:59:39;;;;;;;36.33;23.83;;;-1.40;99.90;;;;;;5043538;28;20232;-74
2022/12/15 03:02:27;;;;;;;38.50;24.70;;;-1.50;99.90;;;;;;5043623;28;20622;-74
2022/12/15 03:05:15;;;;;;;37.83;26.70;;;-1.60;99.90;;;;;;5035501;28;20686;-74
2022/12/15 03:08:01;;;;;;;35.47;27.02;;;-1.70;99.90;;;;;;5036606;28;20198;-74
2022/12/15 03:10:47;;;;;;;43.22;30.00;;;-1.60;99.90;;;;;;5038550;28;20233;-74
2022/12/15 03:13:32;;;;;;;41.50;28.17;;;-1.50;99.90;;;;;;5040602;28;20228;-74
2022/12/15 03:16:18;;;;;;;40.38;28.10;;;-1.50;99.90;;;;;;5043718;28;20209;-74
2022/12/15 03:19:04;;;;;;;42.47;26.08;;;-1.40;99.90;;;;;;5040264;28;20586;-74
2022/12/15 03:21:51;;;;;;;35.70;25.27;;;-1.40;99.90;;;;;;5045645;28;20871;-74
2022/12/15 03:24:37;;;;;;;41.55;26.17;;;-1.50;99.90;;;;;;5053649;28;20225;-74
2022/12/15 03:27:22;;;;;;;39.88;28.15;;;-1.50;99.90;;;;;;5039513;28;20204;-74
2022/12/15 03:30:09;;;;;;;33.20;23.85;;;-1.50;99.90;;;;;;5047541;28;20197;-75
2022/12/15 03:32:54;;;;;;;35.35;24.45;;;-1.40;99.90;;;;;;5042407;28;20197;-74
2022/12/15 03:35:40;;;;;;;36.90;24.40;;;-1.50;99.90;;;;;;5036455;28;20208;-74
2022/12/15 03:38:27;;;;;;;42.13;27.15;;;-1.50;99.90;;;;;;5045842;28;20222;-75
2022/12/15 03:41:13;;;;;;;35.28;25.83;;;-1.70;99.90;;;;;;5039855;28;20208;-74
2022/12/15 03:43:59;;;;;;;35.85;23.10;;;-1.80;99.90;;;;;;5042359;28;20225;-74
2022/12/15 03:46:44;;;;;;;35.45;23.20;;;-2.10;99.90;;;;;;5049805;28;20204;-74
2022/12/15 03:49:30;;;;;;;41.08;25.55;;;-2.40;99.90;;;;;;5055633;28;20204;-74
2022/12/15 03:52:15;;;;;;;36.65;28.05;;;-2.50;99.90;;;;;;5047190;28;20695;-74
2022/12/15 03:55:02;;;;;;;36.85;24.70;;;-2.70;99.90;;;;;;5051284;28;20217;-74
2022/12/15 03:57:48;;;;;;;35.88;24.02;;;-2.80;99.90;;;;;;5040893;28;20552;-74
2022/12/15 04:00:33;;;;;;;34.03;26.83;;;-2.80;99.90;;;;;;5050257;28;20219;-74
2022/12/15 04:03:19;;;;;;;34.92;24.73;;;-2.50;99.90;;;;;;5044941;28;20271;-74
2022/12/15 04:06:05;;;;;;;47.00;26.50;;;-2.30;99.90;;;;;;5041837;28;20723;-73
2022/12/15 04:08:50;;;;;;;31.80;23.23;;;-2.30;99.90;;;;;;5050074;28;20208;-74
2022/12/15 04:11:37;;;;;;;34.45;24.70;;;-2.30;99.90;;;;;;5040180;28;20597;-74
2022/12/15 04:14:23;;;;;;;28.98;20.98;;;-2.20;99.90;;;;;;5044339;28;20593;-74
2022/12/15 04:17:09;;;;;;;38.15;27.58;;;-2.30;99.90;;;;;;5040947;28;20204;-74
2022/12/15 04:20:09;;;;;;;37.72;24.77;;;-2.40;99.90;;;;;;5049440;28;20220;-74
2022/12/15 04:22:55;;;;;;;32.47;22.20;;;-2.50;99.90;;;;;;5049500;28;20220;-74
2022/12/15 05:33:03;;;;;;;35.10;22.70;;;-3.10;99.90;;;;;;5047240;28;20217;-74
2022/12/15 05:35:49;;;;;;;32.10;23.05;;;-2.90;99.90;;;;;;5038291;28;20206;-74
2022/12/15 05:38:35;;;;;;;36.50;25.27;;;-2.80;99.90;;;;;;5050827;28;20228;-74
2022/12/15 05:41:22;;;;;;;33.60;23.80;;;-2.90;99.90;;;;;;5059784;28;20201;-73
2022/12/15 05:44:08;;;;;;;57.22;35.83;;;-2.90;99.90;;;;;;5053066;28;20218;-74
2022/12/15 05:46:55;;;;;;;40.65;30.48;;;-2.80;99.90;;;;;;5043631;28;20205;-74
2022/12/15 05:49:41;;;;;;;34.05;21.98;;;-2.70;99.90;;;;;;5052296;28;20205;-74
2022/12/15 05:52:26;;;;;;;39.60;28.95;;;-2.60;99.90;;;;;;5049311;28;20227;-74
2022/12/15 05:55:12;;;;;;;42.67;28.85;;;-2.70;99.90;;;;;;5035763;28;20229;-74
2022/12/15 05:57:57;;;;;;;33.88;24.08;;;-2.60;99.90;;;;;;5043980;28;20324;-74
2022/12/15 06:00:43;;;;;;;31.42;23.08;;;-2.70;99.90;;;;;;5051079;28;20197;-74
2022/12/15 06:03:30;;;;;;;34.13;24.20;;;-2.90;99.90;;;;;;5046108;28;20216;-74
2022/12/15 06:06:16;;;;;;;36.13;24.00;;;-3.00;99.90;;;;;;5037347;28;20801;-74
2022/12/15 06:09:02;;;;;;;34.28;25.90;;;-3.00;99.90;;;;;;5048429;28;20235;-74
2022/12/15 06:11:48;;;;;;;56.42;36.25;;;-3.10;99.90;;;;;;5046094;28;20576;-74
2022/12/15 06:14:35;;;;;;;49.53;27.67;;;-3.20;99.90;;;;;;5044639;28;20601;-74
2022/12/15 06:17:20;;;;;;;32.55;20.77;;;-3.20;99.90;;;;;;5043002;28;20667;-74
2022/12/15 06:20:08;;;;;;;41.15;26.02;;;-3.20;99.90;;;;;;5052575;28;20240;-74
2022/12/15 06:22:53;;;;;;;34.50;22.98;;;-3.40;99.90;;;;;;5047578;28;20345;-74
2022/12/15 06:25:39;;;;;;;32.33;21.58;;;-3.40;99.90;;;;;;5033393;28;20953;-74
2022/12/15 06:28:25;;;;;;;32.00;22.35;;;-3.40;99.90;;;;;;5039519;28;20204;-74
2022/12/15 06:31:12;;;;;;;33.40;23.23;;;-3.30;99.90;;;;;;5051405;28;20690;-74
2022/12/15 06:33:58;;;;;;;32.90;22.75;;;-3.10;99.90;;;;;;5051446;28;20236;-74
2022/12/15 06:36:45;;;;;;;35.63;22.92;;;-3.20;99.90;;;;;;5043299;28;20221;-74
2022/12/15 06:39:31;;;;;;;31.27;20.50;;;-3.50;99.90;;;;;;5046111;28;20241;-74
2022/12/15 06:42:17;;;;;;;30.05;20.70;;;-3.60;99.90;;;;;;5049632;28;20228;-73
2022/12/15 06:45:02;;;;;;;28.90;20.27;;;-3.70;99.90;;;;;;5035756;28;20233;-74
2022/12/15 06:47:48;;;;;;;31.30;21.92;;;-3.90;99.90;;;;;;5037603;28;20210;-74
2022/12/15 06:50:35;;;;;;;35.25;24.00;;;-4.00;99.90;;;;;;5045253;28;20208;-74
2022/12/15 06:53:24;;;;;;;29.90;21.60;;;-3.90;99.90;;;;;;5043855;28;20240;-73
2022/12/15 06:56:20;;;;;;;29.95;22.67;;;-4.00;99.90;;;;;;5038063;28;20255;-74
2022/12/15 06:59:07;;;;;;;35.78;25.80;;;-4.00;99.90;;;;;;5044831;28;20217;-74
2022/12/15 07:01:52;;;;;;;32.55;24.35;;;-3.90;99.90;;;;;;5044889;28;20247;-74
2022/12/15 07:04:38;;;;;;;32.47;23.60;;;-3.90;99.90;;;;;;5041775;28;20231;-74
2022/12/15 07:07:24;;;;;;;35.67;21.70;;;-3.90;99.90;;;;;;5040036;28;20240;-74
2022/12/15 07:10:11;;;;;;;31.58;20.95;;;-3.90;99.90;;;;;;5054325;28;20224;-74
2022/12/15 07:12:57;;;;;;;28.05;21.65;;;-3.90;99.90;;;;;;5045022;28;20563;-74
2022/12/15 07:15:43;;;;;;;31.38;21.25;;;-3.70;99.90;;;;;;5046269;28;20291;-74
2022/12/15 07:18:29;;;;;;;28.40;21.40;;;-3.70;99.90;;;;;;5046015;28;20209;-75
2022/12/15 07:21:15;;;;;;;27.67;20.83;;;-3.60;99.90;;;;;;5041985;28;20204;-74
2022/12/15 07:24:00;;;;;;;32.28;24.85;;;-3.90;99.90;;;;;;5041503;28;20249;-74
2022/12/15 07:26:47;;;;;;;28.15;21.08;;;-3.80;99.90;;;;;;5039666;28;20208;-74
2022/12/15 07:29:32;;;;;;;30.63;20.70;;;-3.90;99.90;;;;;;5048652;28;20197;-74
2022/12/15 07:32:18;;;;;;;30.17;21.25;;;-3.80;99.90;;;;;;5046086;28;20400;-74
2022/12/15 07:35:06;;;;;;;28.20;20.02;;;-3.90;99.90;;;;;;5041091;28;20291;-74
2022/12/15 07:37:53;;;;;;;30.80;21.45;;;-3.80;99.90;;;;;;5042057;28;20620;-74
2022/12/15 07:40:38;;;;;;;32.50;22.38;;;-3.70;99.90;;;;;;5038183;28;20216;-74
2022/12/15 07:43:25;;;;;;;29.55;21.65;;;-3.70;99.90;;;;;;5040180;28;20224;-73
2022/12/15 07:46:11;;;;;;;33.83;22.58;;;-3.70;99.90;;;;;;5035446;28;20259;-74
2022/12/15 07:48:57;;;;;;;34.22;23.90;;;-3.70;99.90;;;;;;5049048;28;20214;-73
2022/12/15 07:51:42;;;;;;;46.50;31.73;;;-3.80;99.90;;;;;;5037780;28;20202;-74
2022/12/15 07:54:28;;;;;;;32.67;24.35;;;-3.80;99.90;;;;;;5037212;28;20227;-75
2022/12/15 07:57:15;;;;;;;28.35;21.00;;;-3.70;99.90;;;;;;5044091;28;20326;-74
2022/12/15 08:00:04;;;;;;;34.42;22.80;;;-3.70;99.90;;;;;;5046589;28;20355;-74
2022/12/15 08:02:50;;;;;;;36.97;26.35;;;-3.70;99.90;;;;;;5041525;28;20582;-73
2022/12/15 08:05:36;;;;;;;46.70;29.90;;;-3.90;99.90;;;;;;5043121;28;20196;-74
2022/12/15 08:08:21;;;;;;;35.92;25.27;;;-4.00;99.90;;;;;;5049466;28;20207;-72
2022/12/15 08:11:08;;;;;;;32.65;24.25;;;-3.90;99.90;;;;;;5039285;28;20205;-74
2022/12/15 08:13:54;;;;;;;30.77;21.27;;;-3.80;99.90;;;;;;5040601;28;20796;-74
2022/12/15 08:16:41;;;;;;;27.42;19.42;;;-3.80;99.90;;;;;;5045966;28;20205;-72
2022/12/15 08:19:26;;;;;;;29.20;21.50;;;-3.70;99.90;;;;;;5047709;28;20629;-74
2022/12/15 08:22:13;;;;;;;31.10;22.02;;;-3.60;99.90;;;;;;5042577;28;20820;-70
2022/12/15 08:24:59;;;;;;;28.35;21.50;;;-3.60;99.90;;;;;;5044791;28;20582;-74
2022/12/15 08:27:45;;;;;;;33.08;21.70;;;-3.70;99.90;;;;;;5045993;28;20255;-75
2022/12/15 08:30:33;;;;;;;33.10;22.27;;;-3.80;99.90;;;;;;5043708;28;20577;-73
2022/12/15 08:33:20;;;;;;;31.30;23.35;;;-3.90;99.90;;;;;;5036081;28;20240;-74
2022/12/15 08:36:08;;;;;;;30.80;21.95;;;-3.90;99.90;;;;;;5040634;28;20704;-74
2022/12/15 08:38:56;;;;;;;33.58;23.90;;;-3.90;99.90;;;;;;5056152;28;20344;-74
2022/12/15 08:41:42;;;;;;;34.90;21.48;;;-3.80;99.90;;;;;;5042604;28;20223;-74
2022/12/15 08:44:27;;;;;;;31.65;24.77;;;-3.80;99.90;;;;;;5038265;28;20340;-74
2022/12/15 08:47:13;;;;;;;33.95;24.95;;;-3.80;99.90;;;;;;5053389;28;20263;-73
2022/12/15 08:50:00;;;;;;;42.97;27.10;;;-3.70;99.90;;;;;;5044213;28;20201;-73
2022/12/15 08:52:46;;;;;;;38.63;26.30;;;-3.70;99.90;;;;;;5042749;28;20217;-74
2022/12/15 08:55:34;;;;;;;37.00;22.70;;;-3.60;99.90;;;;;;5050681;28;20208;-74
2022/12/15 08:58:20;;;;;;;42.45;28.73;;;-3.50;99.90;;;;;;5058115;28;20207;-74
2022/12/15 09:01:07;;;;;;;42.10;29.50;;;-3.30;99.90;;;;;;5049563;28;20228;-74
2022/12/15 09:03:54;;;;;;;49.40;31.77;;;-3.20;99.90;;;;;;5046575;28;20717;-74
2022/12/15 09:06:41;;;;;;;41.22;28.00;;;-3.10;99.90;;;;;;5045291;28;20218;-74
2022/12/15 09:09:27;;;;;;;47.05;30.10;;;-3.10;99.90;;;;;;5055301;28;20201;-73
2022/12/15 09:12:13;;;;;;;43.60;27.45;;;-2.90;99.90;;;;;;5038055;28;20205;-74
2022/12/15 09:14:59;;;;;;;41.20;27.90;;;-2.90;99.90;;;;;;5046023;28;20782;-73
2022/12/15 09:17:45;;;;;;;41.75;28.38;;;-2.80;99.90;;;;;;5055111;28;20915;-74
2022/12/15 09:20:31;;;;;;;39.38;27.42;;;-2.80;99.90;;;;;;5041060;28;20217;-74
2022/12/15 09:23:18;;;;;;;41.90;30.20;;;-2.60;99.90;;;;;;5039609;28;20224;-74
2022/12/15 09:26:06;;;;;;;36.58;25.67;;;-2.50;99.90;;;;;;5052251;28;20262;-73
2022/12/15 09:28:53;;;;;;;36.08;24.67;;;-2.40;99.90;;;;;;5042337;28;20216;-74
2022/12/15 09:31:43;;;;;;;41.80;28.20;;;-2.40;99.90;;;;;;5043133;28;20501;-74
2022/12/15 09:34:29;;;;;;;36.05;26.98;;;-2.20;99.90;;;;;;5050188;28;20607;-74
2022/12/15 09:37:14;;;;;;;42.55;31.45;;;-2.10;99.90;;;;;;5051578;28;20420;-73
2022/12/15 09:40:02;;;;;;;40.85;32.83;;;-1.90;99.90;;;;;;5046564;28;20241;-74
2022/12/15 09:42:53;;;;;;;45.05;32.95;;;-1.80;99.90;;;;;;5039164;28;20248;-74
2022/12/15 09:45:44;;;;;;;49.22;33.58;;;-1.70;99.90;;;;;;5045972;28;20279;-74
2022/12/15 09:48:38;;;;;;;52.72;34.53;;;-1.70;99.90;;;;;;5039889;28;20758;-74
2022/12/15 09:51:30;;;;;;;44.83;30.63;;;-1.60;99.90;;;;;;5038690;28;20218;-74
2022/12/15 09:54:15;;;;;;;51.08;32.47;;;-1.60;99.90;;;;;;5042105;28;20271;-74
2022/12/15 09:57:07;;;;;;;44.55;31.23;;;-1.60;99.90;;;;;;5045714;28;20205;-73
2022/12/15 10:00:08;;;;;;;53.08;32.38;;;-1.50;99.90;;;;;;5046664;28;20248;-74
2022/12/15 10:03:22;;;;;;;43.40;30.08;;;-1.40;99.90;;;;;;5048133;28;20576;-74
2022/12/15 10:06:11;;;;;;;56.30;32.20;;;-1.30;99.90;;;;;;5050805;28;20555;-74
2022/12/15 10:09:01;;;;;;;42.65;31.08;;;-1.20;99.90;;;;;;5055863;28;20209;-74
2022/12/15 10:11:50;;;;;;;44.85;29.80;;;-1.20;99.90;;;;;;5041670;28;20683;-74
2022/12/15 10:14:42;;;;;;;47.35;29.33;;;-1.20;99.90;;;;;;5039487;28;20221;-74
2022/12/15 10:17:36;;;;;;;41.00;28.55;;;-1.20;99.90;;;;;;5041524;28;20213;-74
2022/12/15 10:20:25;;;;;;;38.90;27.67;;;-1.10;99.90;;;;;;5040423;28;20233;-74
2022/12/15 10:23:13;;;;;;;46.55;30.02;;;-1.00;99.90;;;;;;5042865;28;20261;-75
2022/12/15 10:26:14;;;;;;;38.95;26.30;;;-0.80;99.90;;;;;;5038654;28;20205;-72
2022/12/15 10:29:13;;;;;;;39.58;27.58;;;-0.30;99.90;;;;;;5044442;28;20224;-74
2022/12/15 10:32:05;;;;;;;37.80;26.67;;;0.30;99.90;;;;;;5040241;28;20562;-75
2022/12/15 10:34:51;;;;;;;32.75;22.25;;;0.90;99.90;;;;;;5044461;28;20241;-75
2022/12/15 10:37:36;;;;;;;31.02;22.23;;;1.50;99.90;;;;;;5045662;28;20244;-74
2022/12/15 10:40:44;;;;;;;42.80;23.67;;;1.90;99.90;;;;;;5044751;28;20225;-75
2022/12/15 10:43:34;;;;;;;33.55;22.58;;;2.50;99.90;;;;;;5046184;28;20597;-74
2022/12/15 10:46:22;;;;;;;31.52;21.73;;;2.90;99.90;;;;;;5039465;28;20201;-74
2022/12/15 10:49:23;;;;;;;32.50;20.88;;;3.20;99.90;;;;;;5040641;28;20316;-74
2022/12/15 10:52:27;;;;;;;33.97;20.55;;;3.40;99.90;;;;;;5040491;28;20294;-74
2022/12/15 10:55:32;;;;;;;34.10;18.85;;;3.60;99.90;;;;;;5044462;28;20209;-74
2022/12/15 10:58:20;;;;;;;33.03;20.63;;;3.80;99.90;;;;;;5052468;28;20207;-75
2022/12/15 11:01:07;;;;;;;31.20;20.90;;;3.80;99.90;;;;;;5042099;28;20239;-75
2022/12/15 11:03:53;;;;;;;35.22;22.35;;;3.80;99.90;;;;;;5050768;28;20231;-72
2022/12/15 11:06:42;;;;;;;34.85;21.48;;;3.70;99.90;;;;;;5043523;28;20213;-75
2022/12/15 11:09:33;;;;;;;33.15;21.40;;;3.40;99.90;;;;;;5042799;28;20256;-75
2022/12/15 11:15:46;;;;;;;36.40;22.88;;;3.00;99.90;;;;;;5047808;28;20225;-76
2022/12/15 11:18:38;;;;;;;35.03;21.65;;;2.70;99.90;;;;;;5040384;28;20643;-74
2022/12/15 11:21:26;;;;;;;31.13;21.83;;;2.40;99.90;;;;;;5044940;28;20225;-74
2022/12/15 11:24:17;;;;;;;29.58;20.98;;;2.10;99.90;;;;;;5041605;28;20304;-74
2022/12/15 11:27:12;;;;;;;32.25;22.38;;;1.80;99.90;;;;;;5046445;28;20208;-75
2022/12/15 11:30:03;;;;;;;35.42;21.75;;;1.60;99.90;;;;;;5058524;28;20270;-74
2022/12/15 11:32:53;;;;;;;28.50;17.90;;;1.60;99.90;;;;;;5041988;28;20201;-74
2022/12/15 11:35:54;;;;;;;35.67;21.92;;;1.60;99.90;;;;;;5062134;28;20327;-73
2022/12/15 11:38:45;;;;;;;30.75;19.95;;;1.50;99.90;;;;;;5040534;28;20338;-74
2022/12/15 11:41:39;;;;;;;29.42;19.33;;;1.40;99.90;;;;;;5041109;28;20428;-74
2022/12/15 11:44:30;;;;;;;28.65;18.83;;;1.30;99.90;;;;;;5031102;28;20221;-73
2022/12/15 11:47:22;;;;;;;26.30;15.30;;;1.30;99.90;;;;;;5031978;28;20214;-75
2022/12/15 11:50:19;;;;;;;26.35;17.00;;;1.40;99.90;;;;;;5031243;28;20204;-74
2022/12/15 11:53:40;;;;;;;28.13;17.73;;;1.40;99.90;;;;;;5042371;28;20228;-74
2022/12/15 11:56:32;;;;;;;20.10;15.38;;;1.40;99.90;;;;;;5046279;28;20204;-74
2022/12/15 11:59:52;;;;;;;23.60;15.55;;;1.40;99.90;;;;;;5040426;28;20570;-75
2022/12/15 12:02:58;;;;;;;22.50;15.05;;;1.50;99.90;;;;;;5046611;28;20200;-75
2022/12/15 12:06:02;;;;;;;24.17;16.30;;;1.50;99.90;;;;;;5040148;28;20210;-75
2022/12/15 12:09:01;;;;;;;27.92;17.48;;;1.50;99.90;;;;;;5042003;28;20248;-75
2022/12/15 12:11:53;;;;;;;24.92;16.60;;;1.60;99.90;;;;;;5042296;28;20283;-74
2022/12/15 12:14:57;;;;;;;27.30;16.92;;;1.70;99.90;;;;;;5053145;28;20279;-75
2022/12/15 12:17:46;;;;;;;27.25;18.10;;;1.60;99.90;;;;;;5055046;28;20579;-73
2022/12/15 12:20:41;;;;;;;30.58;19.50;;;1.70;99.90;;;;;;5049437;28;20221;-73
2022/12/15 12:23:35;;;;;;;28.98;19.80;;;1.80;99.90;;;;;;5035975;28;20229;-76
2022/12/15 12:26:26;;;;;;;30.17;19.85;;;1.90;99.90;;;;;;5034398;28;20679;-75
2022/12/15 12:29:18;;;;;;;29.42;17.58;;;1.90;99.90;;;;;;5035013;28;20667;-75
2022/12/15 12:32:11;;;;;;;27.98;18.38;;;1.90;99.90;;;;;;5036999;28;20623;-75
2022/12/15 12:35:02;;;;;;;32.80;19.17;;;2.10;99.90;;;;;;5054556;28;20237;-75
2022/12/15 12:37:52;;;;;;;28.08;17.85;;;2.10;99.90;;;;;;5058735;28;20220;-75
2022/12/15 12:40:51;;;;;;;28.38;20.02;;;2.20;99.90;;;;;;5036455;28;20259;-73
2022/12/15 12:43:42;;;;;;;30.73;20.38;;;2.30;99.90;;;;;;5044889;28;20264;-73
2022/12/15 12:46:32;;;;;;;28.98;19.10;;;2.40;99.90;;;;;;5035766;28;20310;-74
2022/12/15 12:49:27;;;;;;;31.65;18.70;;;2.70;99.90;;;;;;5045764;28;20213;-73
2022/12/15 12:52:22;;;;;;;36.95;23.02;;;3.10;99.90;;;;;;5041468;28;20201;-71
2022/12/15 12:55:26;;;;;;;32.63;21.65;;;3.40;99.90;;;;;;5046233;28;20261;-74
2022/12/15 12:58:31;;;;;;;28.27;19.38;;;3.80;99.90;;;;;;5036116;28;20224;-74
2022/12/15 13:01:19;;;;;;;28.38;19.58;;;4.00;99.90;;;;;;5039552;28;20714;-74
2022/12/15 13:04:09;;;;;;;31.17;19.02;;;3.70;99.90;;;;;;5040664;28;20357;-73
2022/12/15 13:07:05;;;;;;;34.25;20.45;;;3.40;99.90;;;;;;5046736;28;20200;-73
2022/12/15 13:10:05;;;;;;;28.35;18.75;;;2.90;99.90;;;;;;5039614;28;20725;-73
2022/12/15 13:12:51;;;;;;;32.60;20.00;;;2.60;99.90;;;;;;5049195;28;20201;-73
2022/12/15 13:15:41;;;;;;;32.15;21.92;;;2.30;99.90;;;;;;5043133;28;20323;-73
2022/12/15 13:18:28;;;;;;;32.20;21.20;;;2.10;99.90;;;;;;5040930;28;20212;-71
2022/12/15 13:21:42;;;;;;;32.45;21.65;;;1.90;99.90;;;;;;5044475;28;20259;-72
2022/12/15 13:24:34;;;;;;;37.65;23.00;;;1.70;99.90;;;;;;5052645;28;20268;-73
2022/12/15 13:27:19;;;;;;;37.13;23.38;;;1.60;99.90;;;;;;5044467;28;20348;-72
2022/12/15 13:30:15;;;;;;;42.13;24.85;;;1.60;99.90;;;;;;5042596;28;20605;-73
2022/12/15 13:33:16;;;;;;;40.85;25.08;;;1.50;99.90;;;;;;5062925;28;20228;-73
2022/12/15 13:36:01;;;;;;;38.25;22.95;;;1.40;99.90;;;;;;5046287;28;20741;-74
2022/12/15 13:38:56;;;;;;;34.85;22.45;;;1.30;99.90;;;;;;5061970;28;20204;-72
2022/12/15 13:41:44;;;;;;;39.83;24.80;;;1.20;99.90;;;;;;5040970;28;20236;-73
2022/12/15 13:44:35;;;;;;;39.17;23.98;;;1.10;99.90;;;;;;5056530;28;20216;-73
2022/12/15 13:47:23;;;;;;;40.47;23.77;;;1.10;99.90;;;;;;5058376;28;20204;-73
2022/12/15 13:50:14;;;;;;;37.58;24.10;;;1.10;99.90;;;;;;5046821;28;20331;-73
2022/12/15 13:53:03;;;;;;;38.35;24.27;;;1.00;99.90;;;;;;5048051;28;20361;-73
2022/12/15 13:56:06;;;;;;;38.92;25.02;;;1.00;99.90;;;;;;5056356;28;20202;-73
2022/12/15 13:58:59;;;;;;;36.60;23.88;;;1.00;99.90;;;;;;5050435;28;20571;-73
2022/12/15 14:01:49;;;;;;;35.45;24.08;;;1.00;99.90;;;;;;5054377;28;20225;-71
2022/12/15 14:04:34;;;;;;;41.17;25.13;;;1.00;99.90;;;;;;5048328;28;20300;-74
2022/12/15 14:07:20;;;;;;;34.22;22.95;;;1.10;99.90;;;;;;5051831;28;20205;-73
2022/12/15 14:10:15;;;;;;;39.80;24.13;;;1.00;99.90;;;;;;5042324;28;20675;-73
2022/12/15 14:13:08;;;;;;;33.42;22.15;;;0.90;99.90;;;;;;5048635;28;20279;-72
2022/12/15 14:15:58;;;;;;;40.10;24.10;;;0.90;99.90;;;;;;5056280;28;20682;-73
2022/12/15 14:18:44;;;;;;;37.13;25.13;;;0.90;99.90;;;;;;5051127;28;20676;-73
2022/12/15 14:21:30;;;;;;;33.78;22.00;;;0.90;99.90;;;;;;5064669;28;20219;-73
2022/12/15 14:24:27;;;;;;;32.53;22.98;;;0.90;99.90;;;;;;5050643;28;20473;-73
2022/12/15 14:27:22;;;;;;;41.30;23.50;;;0.90;99.90;;;;;;5047597;28;20204;-72
2022/12/15 14:30:24;;;;;;;34.92;22.52;;;0.80;99.90;;;;;;5053623;28;20209;-72
2022/12/15 14:33:15;;;;;;;29.55;21.42;;;0.80;99.90;;;;;;5041069;28;20355;-73
2022/12/15 14:36:01;;;;;;;34.25;21.63;;;0.70;99.90;;;;;;5035132;28;20321;-73
2022/12/15 14:38:53;;;;;;;32.30;22.35;;;0.70;99.90;;;;;;5029474;28;20202;-73
2022/12/15 14:41:44;;;;;;;35.25;22.75;;;0.70;99.90;;;;;;5035143;28;20228;-72
2022/12/15 14:44:33;;;;;;;32.78;21.00;;;0.70;99.90;;;;;;5036627;28;20228;-73
2022/12/15 14:47:23;;;;;;;33.83;21.25;;;0.70;99.90;;;;;;5040812;28;20207;-72
2022/12/15 14:50:11;;;;;;;31.17;21.00;;;0.70;99.90;;;;;;5034663;28;20294;-72
2022/12/15 14:53:00;;;;;;;39.15;20.20;;;0.60;99.90;;;;;;5043712;28;20201;-70
2022/12/15 14:55:46;;;;;;;35.92;21.55;;;0.60;99.90;;;;;;5031990;28;20246;-71
2022/12/15 14:58:34;;;;;;;31.02;19.98;;;0.60;99.90;;;;;;5028551;28;20248;-71
2022/12/15 15:01:25;;;;;;;32.97;20.20;;;0.60;99.90;;;;;;5032919;28;20739;-71
2022/12/15 15:04:25;;;;;;;54.28;34.25;;;0.70;99.90;;;;;;5032339;28;20311;-73
2022/12/15 15:07:18;;;;;;;40.22;23.27;;;0.60;99.90;;;;;;5027059;28;20205;-71
2022/12/15 15:10:20;;;;;;;50.45;30.25;;;0.60;99.90;;;;;;5054773;28;20321;-72
2022/12/15 15:13:06;;;;;;;40.45;23.77;;;0.50;99.90;;;;;;5048577;28;20688;-73
2022/12/15 15:15:53;;;;;;;31.10;21.92;;;0.40;99.90;;;;;;5031216;28;20229;-73
2022/12/15 15:18:38;;;;;;;34.95;20.75;;;0.30;99.90;;;;;;5028338;28;20232;-75
2022/12/15 15:21:26;;;;;;;33.10;22.83;;;0.40;99.90;;;;;;5036410;28;20736;-75
2022/12/15 15:24:24;;;;;;;34.03;22.98;;;0.30;99.90;;;;;;5033939;28;20901;-75
2022/12/15 15:27:31;;;;;;;29.38;20.88;;;0.30;99.90;;;;;;5032164;28;20200;-74
2022/12/15 15:30:20;;;;;;;35.33;23.58;;;0.40;99.90;;;;;;5038943;28;20263;-73
2022/12/15 15:33:06;;;;;;;31.88;21.73;;;0.40;99.90;;;;;;5032669;28;20291;-72
2022/12/15 15:35:54;;;;;;;29.60;20.08;;;0.30;99.90;;;;;;5038456;28;20352;-74
2022/12/15 15:38:41;;;;;;;29.08;19.92;;;0.30;99.90;;;;;;5041437;28;20219;-73
2022/12/15 15:41:30;;;;;;;33.47;21.00;;;0.40;99.90;;;;;;5042295;28;20236;-74
2022/12/15 15:44:16;;;;;;;35.67;21.88;;;0.30;99.90;;;;;;5033353;28;20236;-75
2022/12/15 15:47:01;;;;;;;29.83;20.23;;;0.30;99.90;;;;;;5034322;28;20695;-74
2022/12/15 15:49:48;;;;;;;35.88;21.45;;;0.40;99.90;;;;;;5048894;28;20967;-73
2022/12/15 15:52:33;;;;;;;36.22;22.15;;;0.40;99.90;;;;;;5036254;28;20683;-75
2022/12/15 15:55:25;;;;;;;29.23;19.95;;;0.40;99.90;;;;;;5042349;28;20327;-72
2022/12/15 15:58:13;;;;;;;29.80;19.80;;;0.40;99.90;;;;;;5057615;28;20673;-73
2022/12/15 16:00:58;;;;;;;29.40;19.42;;;0.40;99.90;;;;;;5045931;28;20326;-71
2022/12/15 16:03:44;;;;;;;43.00;25.33;;;0.30;99.90;;;;;;5036873;28;20526;-75
2022/12/15 16:06:30;;;;;;;111.38;53.78;;;0.30;99.90;;;;;;5032104;28;20205;-74
2022/12/15 16:09:16;;;;;;;37.03;21.75;;;0.20;99.90;;;;;;5034133;28;20331;-75
2022/12/15 16:12:02;;;;;;;30.77;20.17;;;0.10;99.90;;;;;;5030283;28;20197;-73
2022/12/15 16:14:49;;;;;;;31.25;21.58;;;0.10;99.90;;;;;;5037255;28;20240;-74
2022/12/15 16:17:35;;;;;;;36.08;22.50;;;0.00;99.90;;;;;;5037560;28;20942;-72
2022/12/15 16:20:21;;;;;;;31.38;20.30;;;-0.10;99.90;;;;;;5039474;28;20209;-74
2022/12/15 16:23:13;;;;;;;34.22;21.05;;;-0.10;99.90;;;;;;5034985;28;20253;-75
2022/12/15 16:26:00;;;;;;;35.33;21.90;;;-0.10;99.90;;;;;;5045205;28;20299;-74
2022/12/15 16:28:46;;;;;;;30.10;20.02;;;-0.10;99.90;;;;;;5040157;28;20332;-74
2022/12/15 16:31:35;;;;;;;30.33;19.50;;;-0.10;99.90;;;;;;5037026;28;20205;-75
2022/12/15 16:34:23;;;;;;;27.90;18.95;;;0.00;99.90;;;;;;5032707;28;20245;-74
2022/12/15 16:37:23;;;;;;;30.98;18.40;;;0.10;99.90;;;;;;5041500;28;20216;-75
2022/12/15 16:40:15;;;;;;;32.45;19.58;;;0.10;99.90;;;;;;5035902;28;20205;-75
2022/12/15 16:43:02;;;;;;;25.73;17.17;;;0.20;99.90;;;;;;5033194;28;20228;-73
2022/12/15 16:45:49;;;;;;;26.90;17.25;;;0.20;99.90;;;;;;5035894;28;20206;-73
2022/12/15 16:48:36;;;;;;;27.67;18.10;;;0.10;99.90;;;;;;5030623;28;20332;-75